Time;durP1;ratioP1;P1;durP2;ratioP2;P2;SDS_P1;SDS_P2;PMS_P1;PMS_P2;Temp;Humidity;BMP_temperature;BMP_pressure;BME280_temperature;BME280_humidity;BME280_pressure;Samples;Min_cycle;Max_cycle;Signal;HPM_P1;HPM_P2
2022/04/26 03:37:12;;;;;;;26.27;12.75;;;;;;;;;;5078343;28;20060;-72
2022/04/26 03:39:38;;;;;;;26.08;11.65;;;;;;;;;;5080855;28;20055;-73
2022/04/26 03:42:04;;;;;;;24.33;12.43;;;;;;;;;;5080809;28;20056;-72
2022/04/26 03:44:30;;;;;;;23.98;12.85;;;;;;;;;;5078261;28;20411;-73
2022/04/26 03:46:57;;;;;;;26.52;13.10;;;;;;;;;;5079946;28;20044;-73
2022/04/26 03:49:23;;;;;;;22.67;12.07;;;;;;;;;;5061047;28;20051;-72
2022/04/26 03:51:52;;;;;;;23.60;12.32;;;;;;;;;;5081212;28;20041;-73
2022/04/26 03:54:18;;;;;;;23.02;11.68;;;;;;;;;;5082383;28;20047;-72
2022/04/26 03:56:44;;;;;;;22.13;11.80;;;;;;;;;;5078581;28;20040;-72
2022/04/26 03:59:10;;;;;;;26.48;12.55;;;;;;;;;;5079874;28;20048;-72
2022/04/26 04:01:36;;;;;;;22.58;12.18;;;;;;;;;;5079464;28;20486;-73
2022/04/26 04:04:02;;;;;;;24.40;11.95;;;;;;;;;;5080494;28;20047;-72
2022/04/26 04:06:28;;;;;;;27.83;12.20;;;;;;;;;;5076919;28;20102;-73
2022/04/26 04:08:54;;;;;;;23.38;11.02;;;;;;;;;;5040034;28;20043;-72
2022/04/26 04:11:20;;;;;;;22.83;11.88;;;;;;;;;;5080145;28;20045;-72
2022/04/26 04:13:46;;;;;;;20.63;10.98;;;;;;;;;;5062620;28;20402;-73
2022/04/26 04:16:12;;;;;;;21.13;10.65;;;;;;;;;;5078071;28;20036;-73
2022/04/26 04:21:22;;;;;;;18.15;10.77;;;;;;;;;;5076388;28;20044;-73
2022/04/26 04:23:48;;;;;;;21.30;10.38;;;;;;;;;;5078093;28;20052;-72
2022/04/26 04:26:14;;;;;;;23.13;10.80;;;;;;;;;;5080423;28;20102;-73
2022/04/26 04:28:40;;;;;;;22.88;10.30;;;;;;;;;;5077928;28;20040;-73
2022/04/26 04:31:07;;;;;;;24.08;10.40;;;;;;;;;;5042726;28;20127;-72
2022/04/26 04:33:33;;;;;;;24.52;9.93;;;;;;;;;;5078197;28;20441;-72
2022/04/26 04:35:59;;;;;;;25.80;9.65;;;;;;;;;;5062890;28;20049;-73
2022/04/26 04:38:26;;;;;;;21.73;8.77;;;;;;;;;;5071844;28;20083;-72
2022/04/26 04:40:53;;;;;;;25.15;9.95;;;;;;;;;;5077165;28;20055;-73
2022/04/26 04:43:19;;;;;;;21.08;9.40;;;;;;;;;;5076467;28;20067;-72
2022/04/26 04:45:45;;;;;;;24.08;9.20;;;;;;;;;;5079688;28;20048;-72
2022/04/26 04:48:11;;;;;;;24.95;8.88;;;;;;;;;;5077839;28;20453;-71
2022/04/26 04:50:37;;;;;;;22.63;8.88;;;;;;;;;;5078433;28;20051;-72
2022/04/26 04:53:03;;;;;;;22.00;7.93;;;;;;;;;;5079960;28;20041;-72
2022/04/26 04:55:29;;;;;;;20.25;8.50;;;;;;;;;;5079337;28;20045;-72
2022/04/26 04:57:55;;;;;;;17.65;8.18;;;;;;;;;;5072007;28;20072;-73
2022/04/26 05:00:22;;;;;;;17.98;8.35;;;;;;;;;;5052427;28;20379;-72
2022/04/26 05:02:48;;;;;;;21.50;8.60;;;;;;;;;;5079922;28;20049;-73
2022/04/26 05:05:14;;;;;;;20.20;7.82;;;;;;;;;;5078252;28;20102;-72
2022/04/26 05:07:40;;;;;;;21.05;8.50;;;;;;;;;;5066443;28;20044;-72
2022/04/26 05:10:06;;;;;;;20.33;7.40;;;;;;;;;;5073918;28;20048;-72
2022/04/26 05:12:33;;;;;;;19.48;7.93;;;;;;;;;;5075075;28;20108;-72
2022/04/26 05:14:59;;;;;;;21.60;8.65;;;;;;;;;;5079644;28;20037;-73
2022/04/26 05:17:27;;;;;;;19.85;8.05;;;;;;;;;;5075555;28;20029;-72
2022/04/26 05:19:53;;;;;;;18.67;7.72;;;;;;;;;;5076232;28;20043;-73
2022/04/26 05:22:19;;;;;;;20.98;8.13;;;;;;;;;;5063269;28;20041;-72
2022/04/26 05:24:56;;;;;;;19.48;7.85;;;;;;;;;;5078842;28;20050;-72
2022/04/26 05:27:22;;;;;;;19.92;7.22;;;;;;;;;;5078175;28;20048;-73
2022/04/26 05:29:49;;;;;;;21.77;7.32;;;;;;;;;;5078988;28;20380;-73
2022/04/26 05:32:19;;;;;;;19.77;7.47;;;;;;;;;;5078123;28;20044;-73
2022/04/26 05:34:45;;;;;;;16.17;7.35;;;;;;;;;;5078124;28;20059;-72
2022/04/26 05:37:11;;;;;;;18.33;7.30;;;;;;;;;;5061612;28;20052;-72
2022/04/26 05:39:37;;;;;;;17.15;7.50;;;;;;;;;;5070228;28;20141;-72
2022/04/26 05:42:03;;;;;;;18.60;7.47;;;;;;;;;;5076447;28;20048;-73
2022/04/26 05:44:29;;;;;;;18.02;7.63;;;;;;;;;;5071658;28;20049;-74
2022/04/26 05:46:55;;;;;;;17.40;7.93;;;;;;;;;;5062992;28;20048;-72
2022/04/26 05:49:21;;;;;;;19.50;7.43;;;;;;;;;;5078297;28;20052;-72
2022/04/26 05:51:49;;;;;;;25.00;7.45;;;;;;;;;;5060855;28;20036;-72
2022/04/26 05:54:15;;;;;;;21.30;7.13;;;;;;;;;;5075279;28;20148;-73
2022/04/26 05:56:42;;;;;;;17.48;7.50;;;;;;;;;;5078631;28;20068;-73
2022/04/26 05:59:08;;;;;;;20.65;7.35;;;;;;;;;;5078584;28;20040;-73
2022/04/26 06:01:34;;;;;;;23.20;7.43;;;;;;;;;;5074261;28;20049;-73
2022/04/26 06:04:00;;;;;;;17.00;6.90;;;;;;;;;;5056277;28;20049;-71
2022/04/26 06:06:26;;;;;;;20.38;6.72;;;;;;;;;;5073855;28;20047;-72
2022/04/26 06:08:53;;;;;;;17.23;7.40;;;;;;;;;;5077978;28;20509;-72
2022/04/26 06:11:19;;;;;;;19.65;6.63;;;;;;;;;;5060357;28;20058;-72
2022/04/26 06:13:45;;;;;;;15.05;6.85;;;;;;;;;;5076674;28;20040;-72
2022/04/26 06:16:11;;;;;;;15.05;6.47;;;;;;;;;;5074723;28;20082;-73
2022/04/26 06:18:37;;;;;;;18.20;6.70;;;;;;;;;;5075138;28;20124;-74
2022/04/26 06:21:03;;;;;;;24.33;6.65;;;;;;;;;;5078507;28;20044;-73
2022/04/26 06:23:29;;;;;;;16.67;6.20;;;;;;;;;;5060333;28;20047;-73
2022/04/26 06:25:55;;;;;;;16.52;6.03;;;;;;;;;;5059793;28;20051;-73
2022/04/26 06:28:21;;;;;;;16.38;6.47;;;;;;;;;;5076996;28;20840;-73
2022/04/26 06:30:47;;;;;;;16.30;6.10;;;;;;;;;;5081969;28;20041;-72
2022/04/26 06:33:13;;;;;;;16.55;6.03;;;;;;;;;;5073510;28;20093;-72
2022/04/26 06:35:40;;;;;;;17.65;5.82;;;;;;;;;;5070784;28;20052;-73
2022/04/26 06:38:06;;;;;;;20.15;6.40;;;;;;;;;;5077567;28;20066;-73
2022/04/26 06:40:32;;;;;;;14.23;5.97;;;;;;;;;;5080669;28;20044;-73
2022/04/26 06:42:58;;;;;;;18.55;6.13;;;;;;;;;;5083587;28;20059;-72
2022/04/26 06:45:24;;;;;;;16.13;6.50;;;;;;;;;;5081924;28;20044;-74
2022/04/26 06:47:50;;;;;;;19.33;7.28;;;;;;;;;;5086846;28;20045;-74
2022/04/26 06:50:17;;;;;;;15.68;6.15;;;;;;;;;;5085441;28;20072;-74
2022/04/26 06:52:43;;;;;;;19.30;7.32;;;;;;;;;;5081637;28;20040;-74
2022/04/26 06:55:10;;;;;;;15.32;6.95;;;;;;;;;;5085257;28;20048;-74
2022/04/26 06:57:36;;;;;;;14.55;6.47;;;;;;;;;;5074340;28;20072;-74
2022/04/26 07:00:04;;;;;;;14.30;6.65;;;;;;;;;;5074107;28;20045;-73
2022/04/26 07:02:30;;;;;;;17.17;6.95;;;;;;;;;;5070191;28;20041;-74
2022/04/26 07:04:56;;;;;;;12.90;6.10;;;;;;;;;;5078648;28;20060;-73
2022/04/26 07:07:23;;;;;;;15.23;6.43;;;;;;;;;;5079887;28;20041;-73
2022/04/26 07:09:49;;;;;;;16.10;6.10;;;;;;;;;;5082005;28;20044;-72
2022/04/26 07:12:15;;;;;;;12.45;5.47;;;;;;;;;;5081418;28;20044;-73
2022/04/26 07:14:42;;;;;;;13.10;5.68;;;;;;;;;;5078517;28;20044;-72
2022/04/26 07:17:08;;;;;;;14.07;6.20;;;;;;;;;;5080163;28;20490;-73
2022/04/26 07:19:35;;;;;;;12.50;5.32;;;;;;;;;;5066017;28;20080;-73
2022/04/26 07:22:03;;;;;;;14.43;5.28;;;;;;;;;;5074410;28;20040;-72
2022/04/26 07:24:30;;;;;;;18.17;5.57;;;;;;;;;;5080356;28;20056;-73
2022/04/26 07:26:56;;;;;;;15.95;5.35;;;;;;;;;;5080934;28;20109;-72
2022/04/26 07:29:22;;;;;;;12.15;5.20;;;;;;;;;;5062862;28;20068;-73
2022/04/26 07:31:48;;;;;;;18.58;5.78;;;;;;;;;;5059764;28;20107;-73
2022/04/26 07:34:23;;;;;;;14.27;6.22;;;;;;;;;;5078486;28;20067;-72
2022/04/26 07:36:51;;;;;;;18.58;5.90;;;;;;;;;;5079735;28;20044;-73
2022/04/26 07:39:19;;;;;;;13.00;5.78;;;;;;;;;;5060260;28;20045;-73
2022/04/26 07:41:46;;;;;;;14.98;5.40;;;;;;;;;;5060765;28;20379;-73
2022/04/26 07:44:12;;;;;;;13.52;5.57;;;;;;;;;;5076186;28;20048;-73
2022/04/26 07:46:38;;;;;;;10.70;4.97;;;;;;;;;;5078843;28;20076;-74
2022/04/26 07:49:05;;;;;;;15.85;5.43;;;;;;;;;;5078166;28;20043;-74
2022/04/26 07:51:32;;;;;;;15.07;5.68;;;;;;;;;;5077937;28;20517;-73
2022/04/26 07:53:58;;;;;;;13.35;4.93;;;;;;;;;;5066566;28;20120;-73
2022/04/26 07:56:24;;;;;;;14.52;5.22;;;;;;;;;;5068857;28;20044;-73
2022/04/26 07:58:50;;;;;;;13.93;5.45;;;;;;;;;;5077934;28;20066;-74
2022/04/26 08:01:16;;;;;;;17.48;5.30;;;;;;;;;;5079082;28;20055;-73
2022/04/26 08:03:42;;;;;;;11.98;5.03;;;;;;;;;;5078309;28;20037;-74
2022/04/26 08:06:08;;;;;;;13.23;4.28;;;;;;;;;;5058876;28;20074;-73
2022/04/26 08:08:34;;;;;;;12.70;5.50;;;;;;;;;;5078503;28;20048;-73
2022/04/26 08:11:01;;;;;;;12.95;4.72;;;;;;;;;;5061464;28;20119;-73
2022/04/26 08:13:27;;;;;;;10.15;4.63;;;;;;;;;;5078396;28;20506;-74
2022/04/26 08:15:53;;;;;;;9.85;4.47;;;;;;;;;;5076929;28;20053;-74
2022/04/26 08:18:19;;;;;;;11.43;4.68;;;;;;;;;;5078182;28;20047;-72
2022/04/26 08:20:46;;;;;;;14.93;4.82;;;;;;;;;;5077571;28;20041;-74
2022/04/26 08:23:12;;;;;;;11.95;5.05;;;;;;;;;;5057222;28;20044;-73
2022/04/26 08:28:24;;;;;;;14.10;5.20;;;;;;;;;;5078987;28;20044;-74
2022/04/26 08:30:50;;;;;;;12.75;4.53;;;;;;;;;;5063700;28;20078;-75
2022/04/26 08:33:17;;;;;;;9.20;4.38;;;;;;;;;;5076719;28;20450;-73
2022/04/26 08:35:43;;;;;;;12.93;4.80;;;;;;;;;;5063359;28;20044;-75
2022/04/26 08:38:09;;;;;;;13.35;4.43;;;;;;;;;;5080669;28;20044;-74
2022/04/26 08:40:35;;;;;;;13.13;4.30;;;;;;;;;;5069816;28;20045;-75
2022/04/26 08:43:02;;;;;;;13.75;4.30;;;;;;;;;;5086479;28;20049;-76
2022/04/26 08:45:28;;;;;;;10.15;4.32;;;;;;;;;;5086855;28;20058;-75
2022/04/26 08:53:24;;;;;;;10.93;4.22;;;;;;;;;;5068934;28;20117;-75
2022/04/26 08:55:51;;;;;;;9.63;4.22;;;;;;;;;;5087280;28;20040;-74
2022/04/26 08:58:21;;;;;;;9.68;3.30;;;;;;;;;;5082121;28;20037;-75
2022/04/26 09:01:06;;;;;;;12.13;4.00;;;;;;;;;;5068484;28;20044;-75
2022/04/26 09:03:59;;;;;;;12.95;4.10;;;;;;;;;;5068680;28;20055;-76
2022/04/26 09:06:31;;;;;;;9.73;3.78;;;;;;;;;;5074218;28;20090;-75
2022/04/26 09:09:05;;;;;;;14.73;3.67;;;;;;;;;;5085138;28;20054;-74
2022/04/26 09:11:35;;;;;;;12.80;4.10;;;;;;;;;;5083038;28;20052;-75
2022/04/26 09:14:05;;;;;;;9.88;3.72;;;;;;;;;;5087206;28;20040;-74
2022/04/26 09:16:32;;;;;;;12.02;3.78;;;;;;;;;;5087514;28;20129;-74
2022/04/26 09:18:58;;;;;;;10.65;3.55;;;;;;;;;;5071752;28;20043;-74
2022/04/26 09:21:29;;;;;;;11.20;3.50;;;;;;;;;;5054147;28;20039;-75
2022/04/26 09:24:14;;;;;;;8.05;3.28;;;;;;;;;;5087839;28;20051;-74
2022/04/26 09:26:40;;;;;;;7.55;3.45;;;;;;;;;;5084408;28;20529;-75
2022/04/26 09:29:07;;;;;;;8.80;3.50;;;;;;;;;;5074207;28;20033;-74
2022/04/26 09:31:37;;;;;;;9.23;2.63;;;;;;;;;;5083215;28;20054;-75
2022/04/26 09:34:10;;;;;;;7.65;3.42;;;;;;;;;;5060720;28;20029;-74
2022/04/26 09:36:46;;;;;;;12.18;4.03;;;;;;;;;;5080255;28;20053;-75
2022/04/26 09:39:17;;;;;;;10.77;3.38;;;;;;;;;;5083501;28;20040;-74
2022/04/26 09:41:48;;;;;;;10.75;3.60;;;;;;;;;;5082959;28;20057;-75
2022/04/26 09:44:14;;;;;;;;;;;;;;;;;;5086357;28;20042;-75
2022/04/26 09:46:43;;;;;;;10.50;4.15;;;;;;;;;;5086481;28;19955;-75
2022/04/26 09:49:10;;;;;;;8.23;3.35;;;;;;;;;;5086470;28;20044;-76
2022/04/26 09:51:39;;;;;;;10.50;3.78;;;;;;;;;;5085462;28;20059;-74
2022/04/26 09:54:05;;;;;;;9.10;3.70;;;;;;;;;;5084115;28;20128;-76
2022/04/26 09:56:32;;;;;;;12.35;3.90;;;;;;;;;;5077310;28;20513;-75
2022/04/26 09:58:59;;;;;;;13.70;3.83;;;;;;;;;;5074370;28;20076;-76
2022/04/26 10:01:30;;;;;;;11.27;3.90;;;;;;;;;;5086726;28;20064;-75
2022/04/26 10:03:58;;;;;;;12.93;3.67;;;;;;;;;;5064509;28;20478;-76
2022/04/26 10:06:24;;;;;;;9.85;3.80;;;;;;;;;;5062446;28;20040;-76
2022/04/26 10:08:51;;;;;;;13.75;4.35;;;;;;;;;;5082217;28;20041;-76
2022/04/26 10:11:17;;;;;;;12.00;3.80;;;;;;;;;;5083821;28;20047;-76
2022/04/26 10:13:45;;;;;;;10.00;3.70;;;;;;;;;;5084334;28;20083;-75
2022/04/26 10:16:19;;;;;;;11.70;4.28;;;;;;;;;;5064766;28;20047;-75
2022/04/26 10:18:48;;;;;;;11.10;4.07;;;;;;;;;;5082727;28;20425;-76
2022/04/26 10:21:23;;;;;;;10.30;3.42;;;;;;;;;;5082606;28;20124;-76
2022/04/26 10:23:52;;;;;;;9.90;3.75;;;;;;;;;;5081758;28;20096;-76
2022/04/26 10:26:22;;;;;;;12.02;3.92;;;;;;;;;;5072670;28;20044;-76
2022/04/26 10:28:57;;;;;;;10.70;3.72;;;;;;;;;;5080209;28;20058;-75
2022/04/26 10:31:42;;;;;;;6.63;3.38;;;;;;;;;;5075735;28;20063;-76
2022/04/26 10:34:26;;;;;;;7.57;3.28;;;;;;;;;;5074735;28;20132;-75
2022/04/26 10:36:55;;;;;;;10.98;3.70;;;;;;;;;;5055337;28;20044;-76
2022/04/26 10:39:22;;;;;;;9.65;3.53;;;;;;;;;;5075721;28;20040;-76
2022/04/26 10:41:48;;;;;;;8.13;3.17;;;;;;;;;;5078130;28;20062;-75
2022/04/26 10:44:17;;;;;;;10.10;3.97;;;;;;;;;;5082459;28;20048;-76
2022/04/26 10:46:44;;;;;;;10.15;4.00;;;;;;;;;;5079646;28;20100;-76
2022/04/26 10:49:24;;;;;;;8.80;3.88;;;;;;;;;;5056489;28;20041;-75
2022/04/26 10:51:55;;;;;;;11.38;3.88;;;;;;;;;;5079003;28;20079;-76
2022/04/26 10:54:39;;;;;;;14.35;3.80;;;;;;;;;;5081545;28;20051;-76
2022/04/26 10:57:05;;;;;;;14.80;4.00;;;;;;;;;;5077757;28;20041;-76
2022/04/26 10:59:31;;;;;;;9.50;3.72;;;;;;;;;;5062588;28;20124;-75
2022/04/26 11:01:58;;;;;;;11.20;3.60;;;;;;;;;;5080851;28;20098;-76
2022/04/26 11:04:24;;;;;;;7.68;3.60;;;;;;;;;;5081682;28;20048;-75
2022/04/26 11:06:50;;;;;;;10.93;3.55;;;;;;;;;;5066734;28;20119;-76
2022/04/26 11:09:16;;;;;;;11.57;4.13;;;;;;;;;;5068009;28;20091;-76
2022/04/26 11:11:49;;;;;;;11.07;3.88;;;;;;;;;;5082806;28;20048;-75
2022/04/26 11:14:17;;;;;;;13.05;3.90;;;;;;;;;;5085996;28;20425;-76
2022/04/26 11:16:59;;;;;;;11.45;4.18;;;;;;;;;;5068675;28;20051;-76
2022/04/26 11:19:29;;;;;;;10.45;3.60;;;;;;;;;;5086952;28;20066;-75
2022/04/26 11:21:56;;;;;;;11.38;4.03;;;;;;;;;;5065017;28;20052;-76
2022/04/26 11:29:54;;;;;;;12.63;3.70;;;;;;;;;;5082483;28;20056;-74
2022/04/26 11:32:34;;;;;;;12.70;4.00;;;;;;;;;;5065287;28;20033;-75
2022/04/26 11:35:00;;;;;;;10.35;3.92;;;;;;;;;;5082694;28;20048;-75
2022/04/26 11:37:26;;;;;;;10.55;3.67;;;;;;;;;;5082070;28;20045;-75
2022/04/26 11:39:52;;;;;;;10.23;4.18;;;;;;;;;;5079622;28;20044;-75
2022/04/26 11:42:19;;;;;;;11.35;4.25;;;;;;;;;;5069573;28;20056;-74
2022/04/26 11:44:57;;;;;;;8.82;3.67;;;;;;;;;;5078283;28;20173;-74
2022/04/26 11:47:43;;;;;;;9.13;3.97;;;;;;;;;;5077430;28;20098;-74
2022/04/26 11:50:09;;;;;;;9.05;3.92;;;;;;;;;;5069811;28;20115;-73
2022/04/26 11:52:35;;;;;;;8.88;4.03;;;;;;;;;;5079922;28;20414;-75
2022/04/26 11:55:01;;;;;;;9.00;3.67;;;;;;;;;;5077969;28;20128;-74
2022/04/26 11:57:27;;;;;;;9.30;3.72;;;;;;;;;;5073355;28;20551;-74
2022/04/26 11:59:54;;;;;;;9.15;3.60;;;;;;;;;;5072846;28;20106;-74
2022/04/26 12:02:20;;;;;;;7.32;3.40;;;;;;;;;;5079028;28;20041;-73
2022/04/26 12:04:46;;;;;;;6.80;3.70;;;;;;;;;;5076173;28;20052;-73
2022/04/26 12:07:12;;;;;;;11.05;3.83;;;;;;;;;;5055037;28;20448;-74
2022/04/26 12:09:39;;;;;;;6.80;3.47;;;;;;;;;;5075132;28;20047;-73
2022/04/26 12:12:06;;;;;;;9.18;3.35;;;;;;;;;;5077346;28;20514;-73
2022/04/26 12:14:32;;;;;;;10.07;3.33;;;;;;;;;;5078604;28;20056;-74
2022/04/26 12:16:59;;;;;;;8.85;3.80;;;;;;;;;;5076560;28;20490;-73
2022/04/26 12:19:35;;;;;;;9.38;3.90;;;;;;;;;;5069947;28;20406;-74
2022/04/26 12:22:02;;;;;;;9.35;3.67;;;;;;;;;;5070436;28;20044;-73
2022/04/26 12:24:30;;;;;;;8.27;3.70;;;;;;;;;;5041692;28;20561;-74
2022/04/26 12:27:14;;;;;;;7.82;3.63;;;;;;;;;;5068000;28;20044;-74
2022/04/26 12:29:42;;;;;;;8.10;3.95;;;;;;;;;;5058731;28;20560;-74
2022/04/26 12:32:13;;;;;;;10.07;4.00;;;;;;;;;;5056538;28;20055;-73
2022/04/26 12:34:48;;;;;;;9.77;4.07;;;;;;;;;;5077084;28;20048;-74
2022/04/26 12:37:23;;;;;;;10.38;3.90;;;;;;;;;;5078378;28;20032;-74
2022/04/26 12:39:53;;;;;;;9.57;3.17;;;;;;;;;;5083137;28;20041;-76
2022/04/26 12:42:25;;;;;;;8.52;3.75;;;;;;;;;;5083850;28;20053;-76
2022/04/26 12:45:02;;;;;;;7.68;3.80;;;;;;;;;;5081889;28;20045;-75
2022/04/26 12:50:35;;;;;;;8.40;3.53;;;;;;;;;;5069789;28;20044;-73
2022/04/26 12:53:05;;;;;;;7.97;3.65;;;;;;;;;;5074444;28;20072;-74
2022/04/26 12:55:32;;;;;;;9.55;3.53;;;;;;;;;;5037107;28;20098;-73
2022/04/26 12:58:00;;;;;;;8.75;3.92;;;;;;;;;;5074755;28;20059;-74
2022/04/26 13:00:26;;;;;;;10.65;3.67;;;;;;;;;;5061081;28;20074;-73
2022/04/26 13:02:58;;;;;;;10.57;3.70;;;;;;;;;;5060935;28;20054;-74
2022/04/26 13:05:25;;;;;;;8.38;3.80;;;;;;;;;;5076903;28;20462;-74
2022/04/26 13:07:52;;;;;;;8.38;3.55;;;;;;;;;;5077586;28;20102;-74
2022/04/26 13:10:19;;;;;;;8.80;3.50;;;;;;;;;;5078523;28;20137;-74
2022/04/26 13:12:46;;;;;;;8.18;3.30;;;;;;;;;;5076364;28;20041;-74
2022/04/26 13:15:13;;;;;;;9.45;3.65;;;;;;;;;;5076721;28;20044;-74
2022/04/26 13:17:39;;;;;;;9.73;3.70;;;;;;;;;;5072549;28;20048;-75
2022/04/26 13:20:06;;;;;;;8.00;3.53;;;;;;;;;;5076877;28;20061;-74
2022/04/26 13:22:35;;;;;;;8.65;2.85;;;;;;;;;;5076629;28;20048;-74
2022/04/26 13:25:03;;;;;;;7.45;3.08;;;;;;;;;;5072501;28;20548;-73
2022/04/26 13:27:30;;;;;;;7.78;3.28;;;;;;;;;;5071018;28;20048;-74
2022/04/26 13:29:56;;;;;;;9.75;3.90;;;;;;;;;;5077455;28;20045;-75
2022/04/26 13:32:22;;;;;;;8.85;3.78;;;;;;;;;;5077185;28;20044;-73
2022/04/26 13:34:48;;;;;;;8.93;3.40;;;;;;;;;;5076109;28;20044;-74
2022/04/26 13:37:14;;;;;;;8.15;3.25;;;;;;;;;;5078034;28;20044;-74
2022/04/26 13:39:43;;;;;;;8.00;3.10;;;;;;;;;;5053524;28;20463;-74
2022/04/26 13:42:10;;;;;;;7.70;3.35;;;;;;;;;;5051488;28;20063;-75
2022/04/26 13:44:36;;;;;;;8.18;3.63;;;;;;;;;;5069079;28;20048;-74
2022/04/26 13:47:04;;;;;;;8.65;3.17;;;;;;;;;;5066667;28;20053;-74
2022/04/26 13:49:31;;;;;;;10.95;3.42;;;;;;;;;;5057096;28;20049;-74
2022/04/26 13:51:58;;;;;;;11.75;3.95;;;;;;;;;;5065103;28;20047;-73
2022/04/26 13:54:27;;;;;;;11.43;3.63;;;;;;;;;;5070919;28;20483;-73
2022/04/26 13:56:54;;;;;;;8.82;3.60;;;;;;;;;;5063642;28;20052;-73
2022/04/26 13:59:20;;;;;;;13.90;3.40;;;;;;;;;;5075692;28;20458;-72
2022/04/26 14:01:46;;;;;;;9.32;3.65;;;;;;;;;;5074460;28;20041;-72
2022/04/26 14:04:12;;;;;;;7.43;2.88;;;;;;;;;;5076507;28;20041;-73
2022/04/26 14:06:38;;;;;;;11.23;3.13;;;;;;;;;;5076150;28;20033;-73
2022/04/26 14:09:05;;;;;;;10.98;2.78;;;;;;;;;;5075658;28;20085;-72
2022/04/26 14:11:32;;;;;;;7.43;2.60;;;;;;;;;;5076983;28;20047;-73
2022/04/26 14:22:32;;;;;;;9.75;3.33;;;;;;;;;;4976580;28;20051;-72
2022/04/26 14:24:59;;;;;;;10.70;3.47;;;;;;;;;;4994602;28;20054;-73
2022/04/26 14:27:26;;;;;;;8.90;3.00;;;;;;;;;;4993405;28;20038;-72
2022/04/26 14:29:52;;;;;;;9.40;3.13;;;;;;;;;;4980638;28;20046;-75
2022/04/26 14:32:18;;;;;;;14.40;3.05;;;;;;;;;;5002245;28;20038;-73
2022/04/26 14:34:46;;;;;;;5.78;2.88;;;;;;;;;;5011686;28;20082;-73
2022/04/26 14:37:12;;;;;;;7.70;3.05;;;;;;;;;;5003163;28;20571;-73
2022/04/26 14:39:38;;;;;;;9.73;3.20;;;;;;;;;;4997146;28;20055;-72
2022/04/26 14:42:05;;;;;;;6.95;3.00;;;;;;;;;;5006341;28;20046;-73
2022/04/26 14:44:32;;;;;;;7.18;2.85;;;;;;;;;;5020579;28;20110;-72
2022/04/26 14:46:58;;;;;;;7.90;2.88;;;;;;;;;;5021335;28;20058;-72
2022/04/26 14:49:24;;;;;;;7.97;2.72;;;;;;;;;;5093693;28;20028;-72
2022/04/26 14:51:51;;;;;;;6.65;2.80;;;;;;;;;;5093826;28;20059;-72
2022/04/26 14:54:17;;;;;;;8.82;2.85;;;;;;;;;;5092493;28;20101;-72
2022/04/26 14:56:43;;;;;;;7.43;2.85;;;;;;;;;;5084629;28;20047;-73
2022/04/26 14:59:09;;;;;;;9.07;3.08;;;;;;;;;;5083950;28;20095;-73
2022/04/26 15:01:35;;;;;;;7.15;2.85;;;;;;;;;;5090603;28;20036;-73
2022/04/26 15:04:02;;;;;;;8.30;2.72;;;;;;;;;;5079488;28;20051;-72
2022/04/26 15:06:28;;;;;;;9.32;2.47;;;;;;;;;;5084432;28;20044;-74
2022/04/26 15:11:38;;;;;;;7.78;2.78;;;;;;;;;;5091021;28;20052;-72
2022/04/26 15:16:49;;;;;;;7.50;3.08;;;;;;;;;;5093088;28;20049;-72
2022/04/26 15:19:15;;;;;;;6.32;2.85;;;;;;;;;;5093128;28;20078;-72
2022/04/26 15:21:43;;;;;;;8.88;3.17;;;;;;;;;;5092746;28;20071;-72
2022/04/26 15:24:09;;;;;;;5.95;2.75;;;;;;;;;;5095981;28;20076;-72
2022/04/26 15:26:36;;;;;;;8.13;3.05;;;;;;;;;;5094712;28;20050;-73
2022/04/26 15:29:03;;;;;;;8.25;2.90;;;;;;;;;;5080971;28;20101;-72
2022/04/26 15:31:29;;;;;;;10.18;3.53;;;;;;;;;;5082774;28;20072;-71
2022/04/26 15:33:55;;;;;;;9.73;2.90;;;;;;;;;;5093592;28;20041;-72
2022/04/26 15:36:21;;;;;;;8.27;3.08;;;;;;;;;;5088882;28;20049;-72
2022/04/26 15:38:47;;;;;;;7.55;2.88;;;;;;;;;;5094579;28;20049;-73
2022/04/26 15:41:14;;;;;;;9.07;3.42;;;;;;;;;;5076214;28;20055;-72
2022/04/26 15:43:41;;;;;;;10.63;2.90;;;;;;;;;;5090691;28;20040;-72
2022/04/26 15:46:11;;;;;;;6.97;2.40;;;;;;;;;;5093985;28;20052;-72
2022/04/26 15:48:39;;;;;;;7.65;3.10;;;;;;;;;;5075454;28;20183;-72
2022/04/26 15:51:09;;;;;;;8.48;3.13;;;;;;;;;;5084766;28;20032;-73
2022/04/26 15:53:35;;;;;;;7.60;2.60;;;;;;;;;;5093320;28;20041;-73
2022/04/26 15:56:01;;;;;;;9.02;3.30;;;;;;;;;;5091768;28;20482;-71
2022/04/26 15:58:27;;;;;;;7.47;3.28;;;;;;;;;;5091575;28;20032;-72
2022/04/26 16:00:55;;;;;;;7.47;2.97;;;;;;;;;;5085105;28;20045;-72
2022/04/26 16:03:21;;;;;;;5.97;2.90;;;;;;;;;;5086415;28;20079;-72
2022/04/26 16:05:48;;;;;;;9.77;3.05;;;;;;;;;;5075266;28;20048;-72
2022/04/26 16:08:14;;;;;;;7.88;3.10;;;;;;;;;;5073630;28;20048;-72
2022/04/26 16:21:40;;;;;;;6.90;2.92;;;;;;;;;;5076727;28;20072;-72
2022/04/26 16:24:06;;;;;;;10.38;3.17;;;;;;;;;;5070596;28;20104;-73
2022/04/26 16:26:36;;;;;;;7.95;3.13;;;;;;;;;;5086285;28;20048;-73
2022/04/26 16:29:03;;;;;;;8.85;3.25;;;;;;;;;;5089151;28;20048;-72
2022/04/26 16:31:30;;;;;;;8.15;3.05;;;;;;;;;;5089516;28;20100;-72
2022/04/26 16:34:00;;;;;;;8.77;3.50;;;;;;;;;;5088728;28;20045;-73
2022/04/26 16:36:26;;;;;;;8.77;3.22;;;;;;;;;;5082847;28;20403;-71
2022/04/26 16:38:52;;;;;;;9.57;2.80;;;;;;;;;;5078760;28;20056;-71
2022/04/26 16:41:19;;;;;;;9.05;3.10;;;;;;;;;;5087615;28;20106;-72
2022/04/26 16:43:46;;;;;;;10.40;3.92;;;;;;;;;;5087588;28;20029;-72
2022/04/26 16:46:14;;;;;;;8.27;3.28;;;;;;;;;;5087582;28;20044;-72
2022/04/26 16:48:40;;;;;;;9.48;3.60;;;;;;;;;;5084921;28;20051;-71
2022/04/26 16:51:06;;;;;;;11.23;3.20;;;;;;;;;;5081241;28;20482;-72
2022/04/26 16:53:32;;;;;;;11.55;3.40;;;;;;;;;;5088120;28;20044;-72
2022/04/26 16:55:58;;;;;;;9.13;3.08;;;;;;;;;;5090526;28;20048;-72
2022/04/26 16:58:24;;;;;;;8.18;3.00;;;;;;;;;;5079380;28;20099;-73
2022/04/26 17:00:50;;;;;;;10.80;3.20;;;;;;;;;;5089452;28;20056;-72
2022/04/26 17:03:18;;;;;;;7.28;2.67;;;;;;;;;;5074088;28;20037;-72
2022/04/26 17:05:47;;;;;;;7.65;3.25;;;;;;;;;;5071661;28;20059;-71
2022/04/26 17:08:17;;;;;;;8.13;2.95;;;;;;;;;;5069128;28;20052;-72
2022/04/26 17:10:44;;;;;;;9.93;2.60;;;;;;;;;;5090132;28;20064;-72
2022/04/26 17:13:10;;;;;;;10.05;2.88;;;;;;;;;;5083603;28;20037;-72
2022/04/26 17:15:36;;;;;;;8.02;2.80;;;;;;;;;;5090133;28;20045;-72
2022/04/26 17:18:03;;;;;;;8.07;2.80;;;;;;;;;;5086051;28;20043;-72
2022/04/26 17:20:33;;;;;;;6.80;2.60;;;;;;;;;;5088697;28;20471;-71
2022/04/26 17:22:59;;;;;;;7.93;2.85;;;;;;;;;;5089717;28;20041;-71
2022/04/26 17:25:26;;;;;;;7.20;2.70;;;;;;;;;;5090697;28;20048;-72
2022/04/26 17:27:54;;;;;;;7.80;2.83;;;;;;;;;;5071940;28;20056;-71
2022/04/26 17:30:20;;;;;;;7.15;2.50;;;;;;;;;;5088012;28;20071;-73
2022/04/26 17:32:47;;;;;;;6.85;2.67;;;;;;;;;;5092458;28;20040;-73
2022/04/26 17:35:13;;;;;;;6.60;2.70;;;;;;;;;;5092464;28;20049;-72
2022/04/26 17:37:40;;;;;;;7.75;2.83;;;;;;;;;;5089588;28;20036;-72
2022/04/26 17:40:06;;;;;;;9.00;2.67;;;;;;;;;;5071664;28;20052;-73
2022/04/26 17:42:36;;;;;;;8.05;2.83;;;;;;;;;;5091010;28;20060;-71
2022/04/26 17:45:06;;;;;;;11.43;2.97;;;;;;;;;;5089954;28;20049;-71
2022/04/26 17:47:38;;;;;;;10.30;3.22;;;;;;;;;;5090745;28;20059;-72
2022/04/26 17:50:05;;;;;;;8.05;2.78;;;;;;;;;;5088344;28;20041;-72
2022/04/26 17:52:32;;;;;;;8.07;2.50;;;;;;;;;;5075372;28;20096;-72
2022/04/26 17:57:43;;;;;;;8.45;3.17;;;;;;;;;;5092354;28;20056;-72
2022/04/26 18:00:11;;;;;;;10.15;3.10;;;;;;;;;;5091444;28;20040;-72
2022/04/26 18:02:38;;;;;;;7.10;2.88;;;;;;;;;;5091102;28;20072;-72
2022/04/26 18:05:04;;;;;;;10.43;3.45;;;;;;;;;;5086108;28;20100;-72
2022/04/26 18:07:30;;;;;;;8.00;3.17;;;;;;;;;;5091156;28;20563;-72
2022/04/26 18:09:56;;;;;;;10.88;3.70;;;;;;;;;;5091169;28;20052;-71
2022/04/26 18:12:22;;;;;;;14.13;3.50;;;;;;;;;;5090655;28;20051;-71
2022/04/26 18:14:48;;;;;;;7.80;3.38;;;;;;;;;;5084900;28;20048;-71
2022/04/26 18:17:15;;;;;;;10.27;3.70;;;;;;;;;;5082622;28;20072;-72
2022/04/26 18:19:41;;;;;;;9.45;3.17;;;;;;;;;;5077072;28;20037;-72
2022/04/26 18:22:07;;;;;;;7.93;3.50;;;;;;;;;;5092030;28;20044;-72
2022/04/26 18:24:33;;;;;;;8.30;3.22;;;;;;;;;;5091994;28;20054;-71
2022/04/26 18:26:59;;;;;;;10.43;3.50;;;;;;;;;;5076212;28;20067;-71
2022/04/26 18:29:26;;;;;;;9.73;2.88;;;;;;;;;;5092498;28;20031;-71
2022/04/26 18:31:53;;;;;;;10.52;3.33;;;;;;;;;;5060854;28;20048;-71
2022/04/26 18:34:19;;;;;;;12.45;3.65;;;;;;;;;;5091461;28;20115;-70
2022/04/26 18:36:48;;;;;;;9.52;3.60;;;;;;;;;;5094788;28;20080;-73
2022/04/26 18:39:15;;;;;;;11.70;3.67;;;;;;;;;;5087395;28;20041;-72
2022/04/26 18:41:41;;;;;;;9.23;3.90;;;;;;;;;;5095644;28;20097;-71
2022/04/26 18:44:08;;;;;;;10.70;3.97;;;;;;;;;;5095331;28;20396;-71
2022/04/26 18:46:33;;;;;;;11.30;4.05;;;;;;;;;;5090045;28;20053;-72
2022/04/26 18:48:59;;;;;;;15.27;4.40;;;;;;;;;;5094157;28;20060;-71
2022/04/26 18:51:26;;;;;;;11.68;4.13;;;;;;;;;;5094642;28;20048;-71
2022/04/26 18:53:52;;;;;;;8.65;4.13;;;;;;;;;;5095383;28;20043;-71
2022/04/26 18:56:18;;;;;;;10.65;4.18;;;;;;;;;;5094366;28;20041;-71
2022/04/26 18:58:45;;;;;;;9.57;4.38;;;;;;;;;;5093664;28;20072;-70
2022/04/26 19:01:11;;;;;;;12.60;4.28;;;;;;;;;;5095147;28;20041;-72